Time;durP1;ratioP1;P1;durP2;ratioP2;P2;SDS_P1;SDS_P2;PMS_P1;PMS_P2;Temp;Humidity;BMP_temperature;BMP_pressure;BME280_temperature;BME280_humidity;BME280_pressure;Samples;Min_cycle;Max_cycle;Signal;HPM_P1;HPM_P2
2020/12/29 00:00:07;;;;;;;;;;;;;;;20.01;44.11;100251.47;5119587;28;802;-59
2020/12/29 00:02:32;;;;;;;;;;;;;;;20.04;43.94;100253.59;5119417;28;755;-50
2020/12/29 00:04:58;;;;;;;;;;;;;;;20.02;43.84;100247.56;5119141;27;2006;-48
2020/12/29 00:07:23;;;;;;;;;;;;;;;19.72;44.75;100244.31;5119451;27;758;-51
2020/12/29 00:09:48;;;;;;;;;;;;;;;19.83;44.58;100254.03;5127556;27;1082;-53
2020/12/29 00:12:14;;;;;;;;;;;;;;;19.81;44.30;100253.53;5139937;27;754;-53
2020/12/29 00:14:39;;;;;;;;;;;;;;;19.93;44.39;100249.41;5140052;27;747;-52
2020/12/29 00:17:05;;;;;;;;;;;;;;;19.87;44.12;100247.91;5139259;27;747;-59
2020/12/29 00:19:30;;;;;;;;;;;;;;;19.89;44.12;100238.16;5139661;27;786;-49
2020/12/29 00:21:56;;;;;;;;;;;;;;;19.99;43.91;100235.22;5136501;27;999;-57
2020/12/29 00:24:21;;;;;;;;;;;;;;;19.96;44.27;100235.00;5139545;27;738;-52
2020/12/29 00:26:46;;;;;;;;;;;;;;;19.78;44.38;100221.00;5139580;27;1901;-59
2020/12/29 00:29:12;;;;;;;;;;;;;;;19.97;43.86;100220.09;5140038;27;751;-50
2020/12/29 00:31:37;;;;;;;;;;;;;;;20.04;43.73;100228.75;5139137;27;834;-50
2020/12/29 00:34:03;;;;;;;;;;;;;;;20.09;43.81;100241.59;5139468;27;794;-51
2020/12/29 00:36:28;;;;;;;;;;;;;;;20.13;43.50;100248.97;5125696;27;1003;-49
2020/12/29 00:38:54;;;;;;;;;;;;;;;20.23;43.36;100238.81;5133543;27;810;-46
2020/12/29 00:41:19;;;;;;;;;;;;;;;20.17;43.34;100249.16;5139276;27;870;-47
2020/12/29 00:43:45;;;;;;;;;;;;;;;20.39;43.01;100253.09;5139347;27;810;-60
2020/12/29 00:46:11;;;;;;;;;;;;;;;20.18;43.30;100261.84;5138955;27;1995;-50
2020/12/29 00:48:36;;;;;;;;;;;;;;;20.02;43.81;100244.81;5139513;27;774;-48
2020/12/29 00:51:03;;;;;;;;;;;;;;;20.02;43.94;100230.19;5129054;27;1011;-48
2020/12/29 00:53:29;;;;;;;;;;;;;;;20.18;43.43;100245.28;5117316;28;1135;-48
2020/12/29 00:55:59;;;;;;;;;;;;;;;20.20;43.63;100240.25;5117226;27;1245;-48
2020/12/29 00:58:25;;;;;;;;;;;;;;;20.21;43.48;100243.84;5117929;27;1104;-55
2020/12/29 01:00:50;;;;;;;;;;;;;;;20.00;43.84;100250.63;5118377;28;807;-58
2020/12/29 01:03:16;;;;;;;;;;;;;;;19.87;44.09;100245.97;5117505;28;1112;-59
2020/12/29 01:05:43;;;;;;;;;;;;;;;19.83;44.26;100237.47;5123835;27;1914;-51
2020/12/29 01:08:09;;;;;;;;;;;;;;;19.71;44.80;100220.59;5138454;27;730;-51
2020/12/29 01:10:44;;;;;;;;;;;;;;;19.99;43.84;100224.16;5138016;27;1142;-60
2020/12/29 01:13:28;;;;;;;;;;;;;;;19.99;43.83;100215.06;5138835;27;604;-59
2020/12/29 01:15:54;;;;;;;;;;;;;;;20.20;43.52;100217.34;5137248;27;1089;-59
2020/12/29 01:18:19;;;;;;;;;;;;;;;20.19;43.58;100188.94;5137781;27;1219;-57
2020/12/29 01:20:45;;;;;;;;;;;;;;;20.05;43.83;100213.84;5131107;27;1008;-59
2020/12/29 01:23:11;;;;;;;;;;;;;;;20.15;43.53;100207.25;5117978;28;771;-53
2020/12/29 01:25:38;;;;;;;;;;;;;;;19.92;44.17;100196.19;5118190;28;1913;-60
2020/12/29 01:28:04;;;;;;;;;;;;;;;19.92;44.29;100187.06;5118400;28;751;-58
2020/12/29 01:30:29;;;;;;;;;;;;;;;19.93;43.96;100177.69;5116598;28;798;-46
2020/12/29 01:32:54;;;;;;;;;;;;;;;19.92;43.99;100159.47;5117008;27;1389;-62
2020/12/29 01:35:20;;;;;;;;;;;;;;;19.88;44.35;100152.94;5117780;27;957;-54
2020/12/29 01:37:45;;;;;;;;;;;;;;;19.77;44.51;100155.91;5117305;28;754;-52
2020/12/29 01:40:11;;;;;;;;;;;;;;;19.98;44.04;100164.56;5117787;28;771;-58
2020/12/29 01:42:37;;;;;;;;;;;;;;;20.12;43.44;100167.28;5117842;28;798;-59
2020/12/29 01:45:09;;;;;;;;;;;;;;;20.12;43.77;100158.22;5117147;28;1979;-56
2020/12/29 01:47:36;;;;;;;;;;;;;;;20.21;43.57;100155.50;5117640;27;854;-49
2020/12/29 01:50:02;;;;;;;;;;;;;;;20.34;43.08;100146.31;5117062;27;1063;-50
2020/12/29 01:52:28;;;;;;;;;;;;;;;20.26;43.47;100130.50;5117423;28;775;-51
2020/12/29 01:54:53;;;;;;;;;;;;;;;20.35;43.12;100150.72;5117539;28;771;-61
2020/12/29 01:57:19;;;;;;;;;;;;;;;20.39;42.95;100151.72;5116224;28;779;-52
2020/12/29 01:59:44;;;;;;;;;;;;;;;20.38;43.12;100161.13;5115647;28;799;-49
2020/12/29 02:02:10;;;;;;;;;;;;;;;20.35;43.31;100159.81;5117366;28;815;-54
2020/12/29 02:04:35;;;;;;;;;;;;;;;20.41;43.21;100165.22;5117276;28;2007;-56
2020/12/29 02:07:00;;;;;;;;;;;;;;;20.46;42.87;100165.09;5132991;27;1019;-51
2020/12/29 02:09:26;;;;;;;;;;;;;;;20.37;43.04;100170.56;5137696;27;1094;-59
2020/12/29 02:11:51;;;;;;;;;;;;;;;20.38;43.15;100160.34;5136568;27;794;-47
2020/12/29 02:14:16;;;;;;;;;;;;;;;20.33;43.23;100147.47;5137535;27;814;-46
2020/12/29 02:16:42;;;;;;;;;;;;;;;20.24;43.55;100157.63;5137373;27;826;-49
2020/12/29 02:19:08;;;;;;;;;;;;;;;20.24;43.39;100141.06;5137470;27;878;-50
2020/12/29 02:21:34;;;;;;;;;;;;;;;20.32;43.40;100156.88;5122701;27;937;-49
2020/12/29 02:23:59;;;;;;;;;;;;;;;20.42;42.87;100153.06;5116755;28;826;-58
2020/12/29 02:26:25;;;;;;;;;;;;;;;20.25;43.44;100142.72;5116923;28;1977;-59
2020/12/29 02:28:51;;;;;;;;;;;;;;;20.21;43.39;100144.47;5116822;28;886;-47
2020/12/29 02:31:17;;;;;;;;;;;;;;;20.38;43.12;100146.53;5116582;28;755;-60
2020/12/29 02:33:42;;;;;;;;;;;;;;;20.40;43.03;100147.84;5116722;28;838;-48
2020/12/29 02:36:08;;;;;;;;;;;;;;;20.26;43.27;100147.06;5116584;27;1011;-59
2020/12/29 02:38:33;;;;;;;;;;;;;;;20.33;43.26;100164.03;5115329;28;1309;-57
2020/12/29 02:40:58;;;;;;;;;;;;;;;20.46;42.94;100154.84;5116461;28;759;-51
2020/12/29 02:43:24;;;;;;;;;;;;;;;20.49;42.83;100156.97;5116716;28;759;-60
2020/12/29 02:45:49;;;;;;;;;;;;;;;20.44;43.08;100165.41;5135519;27;1991;-47
2020/12/29 02:48:15;;;;;;;;;;;;;;;20.35;43.02;100159.81;5137126;27;735;-61
2020/12/29 02:50:40;;;;;;;;;;;;;;;20.39;42.90;100154.50;5130147;27;972;-48
2020/12/29 02:53:05;;;;;;;;;;;;;;;20.43;42.91;100162.97;5116737;28;799;-61
2020/12/29 02:55:31;;;;;;;;;;;;;;;20.38;43.15;100166.66;5116473;28;846;-54
2020/12/29 02:57:56;;;;;;;;;;;;;;;20.29;43.13;100163.03;5116687;28;778;-63
2020/12/29 03:00:22;;;;;;;;;;;;;;;20.17;43.58;100164.41;5116255;28;746;-59
2020/12/29 03:02:47;;;;;;;;;;;;;;;20.29;43.13;100180.41;5116432;28;743;-59
2020/12/29 03:05:13;;;;;;;;;;;;;;;20.35;43.16;100175.56;5116121;27;1909;-49
2020/12/29 03:07:38;;;;;;;;;;;;;;;20.47;42.76;100167.53;5116231;28;770;-53
2020/12/29 03:10:07;;;;;;;;;;;;;;;20.45;42.75;100167.03;5126388;27;1122;-57
2020/12/29 03:12:36;;;;;;;;;;;;;;;20.41;42.99;100159.69;5137081;27;881;-59
2020/12/29 03:15:01;;;;;;;;;;;;;;;20.35;43.16;100161.78;5136803;27;818;-57
2020/12/29 03:17:26;;;;;;;;;;;;;;;20.44;42.79;100148.84;5136814;27;846;-59
2020/12/29 03:19:52;;;;;;;;;;;;;;;20.44;42.82;100167.34;5136959;27;881;-58
2020/12/29 03:22:17;;;;;;;;;;;;;;;20.50;42.89;100153.09;5115583;27;937;-46
2020/12/29 03:24:43;;;;;;;;;;;;;;;20.62;42.61;100165.50;5116553;28;1917;-52
2020/12/29 03:27:08;;;;;;;;;;;;;;;20.32;43.11;100165.97;5116392;28;787;-64
2020/12/29 03:29:33;;;;;;;;;;;;;;;20.46;42.85;100168.66;5114853;27;1191;-53
2020/12/29 03:31:59;;;;;;;;;;;;;;;20.24;43.48;100176.97;5116237;28;795;-53
2020/12/29 03:34:27;;;;;;;;;;;;;;;20.28;43.30;100180.72;5116738;28;755;-60
2020/12/29 03:36:52;;;;;;;;;;;;;;;20.41;43.08;100185.38;5115629;27;1001;-54
2020/12/29 03:39:18;;;;;;;;;;;;;;;20.48;42.69;100193.22;5116111;28;838;-62
2020/12/29 03:41:43;;;;;;;;;;;;;;;20.52;42.81;100186.75;5116101;28;768;-62
2020/12/29 03:44:09;;;;;;;;;;;;;;;20.55;42.62;100185.28;5115732;28;759;-62
2020/12/29 03:46:34;;;;;;;;;;;;;;;20.60;42.62;100170.56;5116064;28;1979;-60
2020/12/29 03:48:59;;;;;;;;;;;;;;;20.58;42.40;100173.63;5116193;28;794;-49
2020/12/29 03:51:25;;;;;;;;;;;;;;;20.46;42.88;100167.88;5115187;27;956;-60
2020/12/29 03:53:50;;;;;;;;;;;;;;;20.55;42.56;100163.19;5118832;28;815;-52
2020/12/29 03:56:16;;;;;;;;;;;;;;;20.44;42.72;100153.53;5119844;28;846;-59
2020/12/29 03:58:42;;;;;;;;;;;;;;;20.65;42.27;100148.31;5119287;28;719;-53
2020/12/29 04:01:07;;;;;;;;;;;;;;;20.51;42.57;100148.41;5118599;28;751;-59
2020/12/29 04:03:33;;;;;;;;;;;;;;;20.65;42.53;100154.66;5119959;28;676;-48
2020/12/29 04:05:58;;;;;;;;;;;;;;;20.54;42.64;100124.84;5118586;27;1970;-59
2020/12/29 04:08:23;;;;;;;;;;;;;;;20.52;42.62;100117.72;5119557;28;803;-59
2020/12/29 04:10:49;;;;;;;;;;;;;;;20.67;42.49;100115.66;5136331;27;1098;-59
2020/12/29 04:13:15;;;;;;;;;;;;;;;20.66;42.37;100130.59;5139965;27;711;-52
2020/12/29 04:15:40;;;;;;;;;;;;;;;20.72;42.34;100145.97;5125959;27;921;-51
2020/12/29 04:18:06;;;;;;;;;;;;;;;20.64;42.50;100149.47;5119375;28;776;-61
2020/12/29 04:20:31;;;;;;;;;;;;;;;20.59;42.31;100147.63;5118397;27;925;-60
2020/12/29 04:22:57;;;;;;;;;;;;;;;20.78;42.07;100147.44;5119325;28;751;-61
2020/12/29 04:25:22;;;;;;;;;;;;;;;20.74;41.90;100149.22;5119056;28;1902;-53
2020/12/29 04:27:47;;;;;;;;;;;;;;;20.90;41.95;100168.13;5118806;28;834;-62
2020/12/29 04:30:13;;;;;;;;;;;;;;;20.70;42.24;100178.59;5119159;28;732;-49
2020/12/29 04:32:38;;;;;;;;;;;;;;;20.64;42.39;100182.59;5118996;28;723;-61
2020/12/29 04:35:05;;;;;;;;;;;;;;;20.62;42.48;100171.88;5118484;27;1004;-54
2020/12/29 04:37:31;;;;;;;;;;;;;;;20.79;42.03;100187.75;5119257;28;740;-50
2020/12/29 04:39:56;;;;;;;;;;;;;;;20.80;42.10;100188.56;5118712;28;839;-60
2020/12/29 04:42:23;;;;;;;;;;;;;;;20.69;42.49;100176.97;5118985;28;866;-51
2020/12/29 04:44:48;;;;;;;;;;;;;;;20.82;42.02;100183.56;5118488;28;1909;-60
2020/12/29 04:47:14;;;;;;;;;;;;;;;20.79;42.13;100186.94;5118784;28;810;-48
2020/12/29 04:49:39;;;;;;;;;;;;;;;20.74;42.25;100176.03;5119005;28;827;-60
2020/12/29 04:52:05;;;;;;;;;;;;;;;20.64;42.47;100182.59;5117819;27;961;-46
2020/12/29 04:54:32;;;;;;;;;;;;;;;20.74;42.35;100185.13;5119029;28;740;-46
2020/12/29 04:56:57;;;;;;;;;;;;;;;20.68;42.52;100184.44;5119022;28;766;-60
2020/12/29 04:59:23;;;;;;;;;;;;;;;20.76;42.11;100195.84;5130045;27;893;-46
2020/12/29 05:01:48;;;;;;;;;;;;;;;20.85;42.14;100192.00;5138368;27;1076;-55
2020/12/29 05:04:14;;;;;;;;;;;;;;;20.74;42.15;100198.94;5139239;27;807;-49
2020/12/29 05:06:40;;;;;;;;;;;;;;;20.93;41.88;100214.47;5137864;27;1987;-60
2020/12/29 05:09:05;;;;;;;;;;;;;;;21.02;41.49;100229.97;5139117;27;1110;-50
2020/12/29 05:11:32;;;;;;;;;;;;;;;20.82;42.05;100225.81;5137862;27;736;-46
2020/12/29 05:13:59;;;;;;;;;;;;;;;20.85;42.03;100235.41;5137019;27;799;-60
2020/12/29 05:16:24;;;;;;;;;;;;;;;20.97;41.65;100241.19;5139003;27;897;-60
2020/12/29 05:18:50;;;;;;;;;;;;;;;20.72;42.47;100256.47;5138832;27;739;-45
2020/12/29 05:21:15;;;;;;;;;;;;;;;20.67;42.36;100245.50;5126283;27;949;-47
2020/12/29 05:23:41;;;;;;;;;;;;;;;20.79;42.24;100243.03;5118254;28;735;-46
2020/12/29 05:26:06;;;;;;;;;;;;;;;20.37;43.09;100247.88;5118161;28;1913;-59
2020/12/29 05:28:32;;;;;;;;;;;;;;;20.20;43.34;100239.44;5117711;28;727;-47
2020/12/29 05:31:00;;;;;;;;;;;;;;;20.31;43.33;100238.06;5118008;28;786;-59
2020/12/29 05:33:26;;;;;;;;;;;;;;;20.44;42.92;100236.38;5118112;28;814;-62
2020/12/29 05:35:55;;;;;;;;;;;;;;;20.37;43.01;100242.38;5128526;27;1216;-48
2020/12/29 05:38:20;;;;;;;;;;;;;;;20.49;42.99;100241.78;5138555;27;807;-52
2020/12/29 05:40:46;;;;;;;;;;;;;;;20.47;42.84;100238.53;5138402;27;755;-55
2020/12/29 05:43:12;;;;;;;;;;;;;;;20.44;42.83;100236.38;5137882;27;815;-54
2020/12/29 05:45:37;;;;;;;;;;;;;;;20.51;42.71;100231.28;5137960;27;1890;-59
2020/12/29 05:48:03;;;;;;;;;;;;;;;20.62;42.52;100243.69;5137694;27;1421;-52
2020/12/29 05:50:29;;;;;;;;;;;;;;;20.33;43.26;100247.69;5133644;27;1054;-52
2020/12/29 05:53:04;;;;;;;;;;;;;;;20.13;43.65;100246.22;5137990;27;1275;-53
2020/12/29 05:55:31;;;;;;;;;;;;;;;20.40;42.87;100246.44;5138045;27;750;-51
2020/12/29 05:58:05;;;;;;;;;;;;;;;20.39;42.85;100251.13;5138072;27;748;-51
2020/12/29 06:00:31;;;;;;;;;;;;;;;20.52;42.76;100250.28;5138007;27;811;-48
2020/12/29 06:02:57;;;;;;;;;;;;;;;20.49;42.66;100253.66;5137949;27;901;-54
2020/12/29 06:05:23;;;;;;;;;;;;;;;20.45;42.91;100255.41;5132894;27;1977;-46
2020/12/29 06:07:51;;;;;;;;;;;;;;;20.51;42.63;100265.22;5117543;28;798;-46
2020/12/29 06:10:17;;;;;;;;;;;;;;;20.50;42.91;100260.00;5127323;27;1189;-47
2020/12/29 06:12:42;;;;;;;;;;;;;;;20.39;43.01;100264.94;5137185;27;869;-48
2020/12/29 06:15:07;;;;;;;;;;;;;;;20.34;43.01;100271.41;5135572;27;883;-47
2020/12/29 06:17:33;;;;;;;;;;;;;;;20.39;43.10;100272.44;5135852;27;802;-56
2020/12/29 06:20:05;;;;;;;;;;;;;;;20.50;42.99;100273.81;5134508;27;944;-56
2020/12/29 06:22:30;;;;;;;;;;;;;;;20.51;42.62;100278.22;5115571;28;780;-45
2020/12/29 06:24:56;;;;;;;;;;;;;;;20.57;42.63;100279.72;5115235;28;1987;-57
2020/12/29 06:27:21;;;;;;;;;;;;;;;20.50;42.65;100279.34;5115771;28;838;-47
2020/12/29 06:29:47;;;;;;;;;;;;;;;20.49;42.85;100270.22;5116289;28;755;-46
2020/12/29 06:32:13;;;;;;;;;;;;;;;20.48;42.92;100287.94;5116802;28;796;-53
2020/12/29 06:34:39;;;;;;;;;;;;;;;20.64;42.51;100276.53;5116690;28;803;-58
2020/12/29 06:37:10;;;;;;;;;;;;;;;20.56;42.71;100289.13;5116695;27;942;-50
2020/12/29 06:39:37;;;;;;;;;;;;;;;20.51;42.64;100283.75;5116893;28;747;-58
2020/12/29 06:42:03;;;;;;;;;;;;;;;20.44;42.93;100281.41;5115903;28;740;-48
2020/12/29 06:44:31;;;;;;;;;;;;;;;20.41;43.07;100292.25;5121386;27;1075;-58
2020/12/29 06:46:57;;;;;;;;;;;;;;;20.47;42.86;100297.34;5136025;27;1988;-58
2020/12/29 06:49:22;;;;;;;;;;;;;;;20.64;42.42;100296.66;5136824;27;861;-48
2020/12/29 06:51:48;;;;;;;;;;;;;;;20.31;43.13;100282.25;5120515;27;996;-59
2020/12/29 06:54:14;;;;;;;;;;;;;;;20.01;43.85;100273.53;5116592;28;751;-59
2020/12/29 06:56:53;;;;;;;;;;;;;;;20.01;43.76;100268.00;5116675;28;824;-60
2020/12/29 06:59:20;;;;;;;;;;;;;;;20.37;43.18;100252.56;5116362;28;763;-51
2020/12/29 07:01:45;;;;;;;;;;;;;;;20.30;43.16;100258.53;5115473;28;1256;-54
2020/12/29 07:04:11;;;;;;;;;;;;;;;20.38;43.07;100257.78;5115099;28;1384;-58
2020/12/29 07:06:36;;;;;;;;;;;;;;;20.36;43.02;100246.25;5115836;27;1917;-49
2020/12/29 07:09:02;;;;;;;;;;;;;;;20.42;42.86;100253.28;5118237;28;1169;-49
2020/12/29 07:11:27;;;;;;;;;;;;;;;20.48;42.77;100259.47;5136580;27;869;-59
2020/12/29 07:13:53;;;;;;;;;;;;;;;20.61;42.44;100246.78;5136612;27;850;-55
2020/12/29 07:16:22;;;;;;;;;;;;;;;20.57;42.73;100254.84;5135973;28;739;-59
2020/12/29 07:18:48;;;;;;;;;;;;;;;20.61;42.69;100252.31;5136718;27;801;-57
2020/12/29 07:21:26;;;;;;;;;;;;;;;20.57;42.57;100256.81;5124906;27;1015;-52
2020/12/29 07:23:52;;;;;;;;;;;;;;;20.58;42.70;100266.72;5116467;28;763;-47
2020/12/29 07:26:21;;;;;;;;;;;;;;;20.65;42.33;100264.31;5115896;28;1909;-59
2020/12/29 07:28:50;;;;;;;;;;;;;;;20.73;42.33;100257.28;5119111;28;826;-58
2020/12/29 07:31:15;;;;;;;;;;;;;;;20.73;42.42;100263.59;5120281;28;834;-58
2020/12/29 07:33:53;;;;;;;;;;;;;;;20.69;42.42;100270.88;5119904;28;744;-58
2020/12/29 07:36:18;;;;;;;;;;;;;;;20.81;42.22;100276.66;5119878;27;999;-53
2020/12/29 07:38:48;;;;;;;;;;;;;;;20.83;42.18;100277.19;5120276;28;823;-48
2020/12/29 07:41:16;;;;;;;;;;;;;;;20.72;42.44;100272.22;5119549;28;834;-59
2020/12/29 07:43:42;;;;;;;;;;;;;;;20.84;42.11;100278.78;5120727;28;780;-57
2020/12/29 07:46:07;;;;;;;;;;;;;;;20.88;41.98;100272.66;5119881;28;1913;-58
2020/12/29 07:48:33;;;;;;;;;;;;;;;20.85;42.26;100274.09;5119533;28;806;-46
2020/12/29 07:50:59;;;;;;;;;;;;;;;20.75;42.35;100280.69;5127544;27;1320;-49
2020/12/29 07:53:24;;;;;;;;;;;;;;;20.91;41.95;100286.66;5140462;27;790;-46
2020/12/29 07:55:50;;;;;;;;;;;;;;;20.77;42.38;100286.72;5139958;27;842;-54
2020/12/29 07:58:16;;;;;;;;;;;;;;;20.74;42.72;100276.28;5140461;27;739;-56
2020/12/29 08:00:41;;;;;;;;;;;;;;;20.71;42.58;100271.41;5140289;27;775;-48
2020/12/29 08:03:07;;;;;;;;;;;;;;;20.76;42.50;100260.25;5139940;27;770;-55
2020/12/29 08:05:32;;;;;;;;;;;;;;;20.80;42.43;100250.19;5134173;27;1913;-48
2020/12/29 08:07:58;;;;;;;;;;;;;;;20.94;42.33;100246.50;5119589;28;765;-57
2020/12/29 08:10:24;;;;;;;;;;;;;;;20.91;42.11;100249.91;5132790;27;1145;-58
2020/12/29 08:12:59;;;;;;;;;;;;;;;21.08;42.05;100263.81;5140657;27;949;-53
2020/12/29 08:15:24;;;;;;;;;;;;;;;20.99;42.12;100279.56;5139887;27;811;-50
2020/12/29 08:18:09;;;;;;;;;;;;;;;20.95;42.37;100284.09;5139730;27;759;-57
2020/12/29 08:20:40;;;;;;;;;;;;;;;21.01;42.26;100299.41;5133541;27;972;-47
2020/12/29 08:23:05;;;;;;;;;;;;;;;20.98;42.22;100298.06;5119234;28;755;-59
2020/12/29 08:25:31;;;;;;;;;;;;;;;20.93;42.29;100292.69;5119175;28;1910;-51
2020/12/29 08:28:00;;;;;;;;;;;;;;;21.01;42.21;100297.47;5119341;28;779;-59
2020/12/29 08:30:25;;;;;;;;;;;;;;;20.99;42.32;100279.56;5118919;28;755;-58
2020/12/29 08:32:52;;;;;;;;;;;;;;;20.96;42.25;100288.50;5117717;28;831;-46
2020/12/29 08:35:17;;;;;;;;;;;;;;;21.03;42.23;100280.56;5118649;27;1007;-47
2020/12/29 08:37:48;;;;;;;;;;;;;;;20.97;42.40;100276.28;5118961;28;830;-51
2020/12/29 08:40:15;;;;;;;;;;;;;;;21.08;42.03;100277.66;5117137;28;787;-58
2020/12/29 08:42:40;;;;;;;;;;;;;;;21.11;42.12;100301.91;5117842;28;802;-53
2020/12/29 08:45:07;;;;;;;;;;;;;;;20.98;42.47;100300.03;5117553;28;1970;-47
2020/12/29 08:47:32;;;;;;;;;;;;;;;21.15;42.03;100313.97;5118552;28;731;-46
2020/12/29 08:49:59;;;;;;;;;;;;;;;21.03;42.33;100311.78;5118753;27;1004;-56
2020/12/29 08:52:29;;;;;;;;;;;;;;;21.15;42.04;100311.22;5118531;28;842;-52
2020/12/29 08:54:54;;;;;;;;;;;;;;;21.09;42.36;100320.75;5117544;28;755;-60
2020/12/29 08:57:20;;;;;;;;;;;;;;;21.19;41.78;100326.00;5118522;28;819;-45
2020/12/29 08:59:46;;;;;;;;;;;;;;;20.79;42.82;100325.09;5122747;27;1239;-46
2020/12/29 09:02:12;;;;;;;;;;;;;;;20.87;42.78;100309.72;5137469;27;1423;-45
2020/12/29 09:04:39;;;;;;;;;;;;;;;20.90;42.71;100298.03;5139134;27;767;-52
2020/12/29 09:07:11;;;;;;;;;;;;;;;20.97;42.60;100303.91;5119871;27;1980;-48
2020/12/29 09:09:39;;;;;;;;;;;;;;;21.16;42.03;100307.28;5124694;27;1110;-57
2020/12/29 09:12:05;;;;;;;;;;;;;;;;;;5138936;27;868;-50
2020/12/29 09:14:30;;;;;;;;;;;;;;;21.26;41.98;100305.41;5139120;27;803;-54
2020/12/29 09:16:59;;;;;;;;;;;;;;;21.16;42.04;100306.50;5138496;27;496;-61
2020/12/29 09:19:25;;;;;;;;;;;;;;;21.13;42.11;100302.41;5138610;27;758;-59
2020/12/29 09:21:50;;;;;;;;;;;;;;;21.20;41.80;100305.53;5121583;27;999;-49
2020/12/29 09:24:15;;;;;;;;;;;;;;;21.23;41.74;100303.28;5116689;28;1443;-60
2020/12/29 09:26:47;;;;;;;;;;;;;;;21.17;42.15;100305.38;5116709;28;1913;-49
2020/12/29 09:29:17;;;;;;;;;;;;;;;21.08;42.07;100313.59;5118210;28;759;-47
2020/12/29 09:31:43;;;;;;;;;;;;;;;21.17;42.00;100303.41;5117695;28;1004;-49
2020/12/29 09:34:08;;;;;;;;;;;;;;;21.24;41.93;100313.19;5116553;28;1442;-60
2020/12/29 09:36:34;;;;;;;;;;;;;;;21.30;41.62;100318.28;5117439;27;996;-54
2020/12/29 09:38:59;;;;;;;;;;;;;;;21.39;41.45;100318.31;5117575;28;846;-59
2020/12/29 09:41:24;;;;;;;;;;;;;;;21.42;41.34;100317.69;5117635;28;799;-58
2020/12/29 09:43:50;;;;;;;;;;;;;;;21.26;41.77;100310.94;5117704;28;727;-49
2020/12/29 09:46:15;;;;;;;;;;;;;;;21.24;41.84;100313.19;5117243;28;1976;-58
2020/12/29 09:48:41;;;;;;;;;;;;;;;21.24;42.13;100313.19;5117543;28;794;-57
2020/12/29 09:51:09;;;;;;;;;;;;;;;21.34;41.74;100330.34;5116581;27;1020;-53
2020/12/29 09:53:34;;;;;;;;;;;;;;;21.49;41.21;100315.28;5117266;28;883;-58
2020/12/29 09:56:00;;;;;;;;;;;;;;;21.47;41.38;100319.50;5117396;28;791;-58
2020/12/29 09:58:25;;;;;;;;;;;;;;;21.37;41.44;100317.84;5117814;28;861;-56
2020/12/29 10:00:51;;;;;;;;;;;;;;;21.24;41.78;100329.78;5117088;28;819;-54
2020/12/29 10:03:16;;;;;;;;;;;;;;;21.19;42.13;100323.25;5135212;27;1098;-54
2020/12/29 10:05:43;;;;;;;;;;;;;;;21.28;41.72;100334.38;5130385;27;1963;-52
2020/12/29 10:08:09;;;;;;;;;;;;;;;21.23;41.84;100340.03;5117433;28;774;-55
2020/12/29 10:10:34;;;;;;;;;;;;;;;21.32;41.63;100335.38;5132095;27;1189;-55
2020/12/29 10:13:00;;;;;;;;;;;;;;;21.26;42.02;100344.13;5137628;27;890;-54
2020/12/29 10:15:25;;;;;;;;;;;;;;;21.23;41.90;100333.69;5138230;27;771;-51
2020/12/29 10:17:50;;;;;;;;;;;;;;;21.48;41.18;100319.19;5137490;27;740;-52
2020/12/29 10:20:16;;;;;;;;;;;;;;;21.36;41.67;100321.72;5133936;27;976;-54
2020/12/29 10:22:41;;;;;;;;;;;;;;;21.35;41.57;100314.59;5117220;28;814;-55
2020/12/29 10:25:10;;;;;;;;;;;;;;;21.42;41.36;100320.47;5116527;28;1975;-54
2020/12/29 10:27:36;;;;;;;;;;;;;;;21.34;41.81;100318.47;5117627;28;758;-57
2020/12/29 10:30:01;;;;;;;;;;;;;;;21.31;41.68;100314.38;5116856;28;810;-54
2020/12/29 10:32:27;;;;;;;;;;;;;;;21.38;41.58;100325.00;5116504;28;775;-57
2020/12/29 10:34:52;;;;;;;;;;;;;;;21.15;42.18;100322.28;5117018;28;846;-53
2020/12/29 10:37:18;;;;;;;;;;;;;;;20.97;42.57;100314.97;5115464;28;906;-52
2020/12/29 10:39:43;;;;;;;;;;;;;;;20.87;42.72;100315.25;5116414;28;863;-52
2020/12/29 10:42:09;;;;;;;;;;;;;;;20.47;43.78;100319.44;5116945;28;776;-56
2020/12/29 10:44:34;;;;;;;;;;;;;;;20.73;43.25;100316.09;5116552;28;1007;-52
2020/12/29 10:47:00;;;;;;;;;;;;;;;21.01;42.60;100310.44;5116309;28;1972;-50
2020/12/29 10:49:25;;;;;;;;;;;;;;;21.06;42.23;100321.38;5119877;27;860;-51
2020/12/29 10:51:51;;;;;;;;;;;;;;;21.09;42.12;100311.66;5120284;27;925;-52
2020/12/29 10:54:16;;;;;;;;;;;;;;;21.17;41.92;100314.47;5116529;28;806;-51
2020/12/29 10:56:41;;;;;;;;;;;;;;;21.28;41.78;100325.25;5116636;28;743;-52
2020/12/29 10:59:07;;;;;;;;;;;;;;;21.16;42.16;100296.25;5116388;28;763;-56
2020/12/29 11:01:33;;;;;;;;;;;;;;;20.84;42.65;100311.97;5117024;28;783;-48
2020/12/29 11:03:58;;;;;;;;;;;;;;;20.98;42.62;100298.06;5121010;28;775;-52
2020/12/29 11:06:24;;;;;;;;;;;;;;;21.04;42.42;100304.28;5120555;27;1910;-52
2020/12/29 11:08:49;;;;;;;;;;;;;;;21.05;42.30;100296.84;5120436;28;736;-54
2020/12/29 11:11:15;;;;;;;;;;;;;;;21.14;42.24;100300.44;5137747;27;815;-51
2020/12/29 11:13:40;;;;;;;;;;;;;;;21.18;41.98;100305.03;5141055;27;1047;-51
2020/12/29 11:16:06;;;;;;;;;;;;;;;21.09;42.15;100295.88;5140761;27;835;-58
2020/12/29 11:18:31;;;;;;;;;;;;;;;21.11;42.24;100287.25;5141014;27;758;-48
2020/12/29 11:20:57;;;;;;;;;;;;;;;21.24;41.83;100286.38;5131510;27;1011;-58
2020/12/29 11:23:22;;;;;;;;;;;;;;;21.29;41.82;100280.69;5124279;27;1016;-58
2020/12/29 11:25:48;;;;;;;;;;;;;;;21.44;41.53;100279.47;5140943;27;1909;-46
2020/12/29 11:28:13;;;;;;;;;;;;;;;21.29;41.96;100279.88;5140708;27;1097;-58
2020/12/29 11:30:39;;;;;;;;;;;;;;;21.32;41.74;100273.72;5140497;27;1173;-60
2020/12/29 11:33:04;;;;;;;;;;;;;;;21.41;41.58;100285.63;5140514;27;1027;-49
2020/12/29 11:35:30;;;;;;;;;;;;;;;21.23;41.78;100279.19;5138664;27;1162;-49
2020/12/29 11:37:55;;;;;;;;;;;;;;;21.16;42.07;100289.91;5140154;27;1292;-49
2020/12/29 11:40:20;;;;;;;;;;;;;;;21.18;42.20;100285.69;5140379;27;1228;-51
2020/12/29 11:42:46;;;;;;;;;;;;;;;21.11;42.26;100282.56;5140735;27;785;-59
2020/12/29 11:45:11;;;;;;;;;;;;;;;21.14;42.31;100287.47;5140430;27;1917;-50
2020/12/29 11:47:37;;;;;;;;;;;;;;;21.17;42.00;100297.88;5140467;27;822;-58
2020/12/29 11:50:03;;;;;;;;;;;;;;;21.37;41.64;100296.50;5138840;27;1003;-58
2020/12/29 11:52:28;;;;;;;;;;;;;;;21.32;41.72;100293.06;5135422;27;1067;-48
2020/12/29 11:54:53;;;;;;;;;;;;;;;21.46;41.38;100299.34;5140369;27;782;-49
2020/12/29 11:57:19;;;;;;;;;;;;;;;21.30;41.70;100301.69;5140432;27;1054;-52
2020/12/29 11:59:44;;;;;;;;;;;;;;;21.19;42.11;100306.66;5119301;28;878;-52
2020/12/29 12:02:10;;;;;;;;;;;;;;;21.17;42.00;100308.94;5120062;28;795;-57
2020/12/29 12:04:35;;;;;;;;;;;;;;;21.20;41.87;100311.06;5132500;27;1054;-52
2020/12/29 12:07:01;;;;;;;;;;;;;;;21.36;41.61;100310.66;5121021;27;1964;-50
2020/12/29 12:09:27;;;;;;;;;;;;;;;21.28;41.79;100303.13;5124651;27;1122;-52
2020/12/29 12:11:52;;;;;;;;;;;;;;;21.23;41.92;100297.75;5140814;27;777;-54
2020/12/29 12:14:18;;;;;;;;;;;;;;;21.24;41.92;100302.13;5139068;27;853;-52
2020/12/29 12:16:44;;;;;;;;;;;;;;;21.42;41.55;100298.34;5140123;27;755;-50
2020/12/29 12:19:09;;;;;;;;;;;;;;;21.25;41.90;100301.84;5139922;27;937;-52
2020/12/29 12:21:35;;;;;;;;;;;;;;;21.42;41.38;100303.03;5137733;27;1058;-51
2020/12/29 12:24:00;;;;;;;;;;;;;;;21.20;41.99;100321.31;5139983;27;847;-51
2020/12/29 12:26:26;;;;;;;;;;;;;;;21.36;41.80;100317.03;5140168;27;1906;-55
2020/12/29 12:28:51;;;;;;;;;;;;;;;21.30;41.70;100323.81;5139642;27;735;-54
2020/12/29 12:31:17;;;;;;;;;;;;;;;21.41;41.29;100340.97;5139811;27;806;-50
2020/12/29 12:33:42;;;;;;;;;;;;;;;21.32;41.56;100332.63;5139787;27;798;-50
2020/12/29 12:36:08;;;;;;;;;;;;;;;21.40;41.30;100344.84;5128370;27;964;-52
2020/12/29 12:38:33;;;;;;;;;;;;;;;21.37;41.59;100351.03;5118987;28;877;-53
2020/12/29 12:40:59;;;;;;;;;;;;;;;21.43;41.49;100357.22;5118952;28;843;-49
2020/12/29 12:43:24;;;;;;;;;;;;;;;21.38;41.40;100363.72;5118826;28;763;-54
2020/12/29 12:45:50;;;;;;;;;;;;;;;21.47;41.27;100359.03;5118637;28;1910;-51
2020/12/29 12:48:15;;;;;;;;;;;;;;;21.35;41.55;100353.28;5118839;28;494;-50